Time;durP1;ratioP1;P1;durP2;ratioP2;P2;SDS_P1;SDS_P2;PMS_P1;PMS_P2;Temp;Humidity;BMP_temperature;BMP_pressure;BME280_temperature;BME280_humidity;BME280_pressure;Samples;Min_cycle;Max_cycle;Signal;HPM_P1;HPM_P2
2022/05/08 00:01:07;;;;;;;9.60;2.40;;;17.00;80.30;;;;;;5078478;28;20070;-74
2022/05/08 00:03:34;;;;;;;16.83;3.20;;;17.00;80.50;;;;;;5082720;28;20043;-74
2022/05/08 00:06:06;;;;;;;10.27;3.33;;;17.00;80.50;;;;;;5076649;28;20102;-75
2022/05/08 00:08:33;;;;;;;12.88;3.28;;;17.00;80.60;;;;;;5078089;28;20038;-75
2022/05/08 00:10:59;;;;;;;7.18;2.20;;;17.00;80.50;;;;;;5082386;28;20110;-74
2022/05/08 00:13:26;;;;;;;7.00;1.90;;;17.00;80.60;;;;;;5078590;28;20027;-74
2022/05/08 00:15:52;;;;;;;7.60;1.67;;;17.00;80.60;;;;;;5079913;28;20021;-74
2022/05/08 00:18:19;;;;;;;4.80;2.20;;;17.00;80.60;;;;;;5081743;28;20032;-74
2022/05/08 00:20:45;;;;;;;4.82;1.83;;;17.00;80.60;;;;;;5076941;28;20511;-74
2022/05/08 00:23:14;;;;;;;5.85;2.50;;;17.00;80.60;;;;;;5084902;28;20119;-74
2022/05/08 00:25:40;;;;;;;17.65;2.78;;;17.00;80.50;;;;;;5078286;28;20090;-74
2022/05/08 00:28:07;;;;;;;5.80;2.20;;;16.90;80.40;;;;;;5076642;28;20024;-75
2022/05/08 00:30:33;;;;;;;10.88;2.28;;;16.90;80.40;;;;;;5082989;28;20027;-74
2022/05/08 00:33:00;;;;;;;13.52;2.47;;;17.00;80.30;;;;;;5081268;28;20020;-74
2022/05/08 00:35:27;;;;;;;6.93;3.03;;;16.90;80.00;;;;;;5079105;28;20459;-77
2022/05/08 00:37:53;;;;;;;13.57;3.67;;;16.90;80.00;;;;;;5075643;28;20021;-74
2022/05/08 00:40:20;;;;;;;9.63;2.10;;;16.90;79.90;;;;;;5083876;28;20036;-74
2022/05/08 00:42:46;;;;;;;9.68;2.40;;;16.90;80.30;;;;;;5077580;28;20099;-76
2022/05/08 00:45:14;;;;;;;10.02;2.28;;;16.90;80.20;;;;;;5073529;28;20004;-76
2022/05/08 00:47:41;;;;;;;9.98;2.47;;;16.90;79.80;;;;;;5074058;28;20066;-77
2022/05/08 00:50:47;;;;;;;11.48;2.63;;;16.80;79.50;;;;;;5076598;28;20016;-75
2022/05/08 00:53:53;;;;;;;16.52;2.17;;;16.80;79.10;;;;;;5074348;28;20025;-75
2022/05/08 00:56:59;;;;;;;7.32;2.05;;;16.80;79.30;;;;;;5073658;28;20116;-74
2022/05/08 01:00:06;;;;;;;3.72;1.38;;;16.80;78.80;;;;;;5079284;28;20055;-75
2022/05/08 01:03:12;;;;;;;1.95;0.70;;;16.80;77.70;;;;;;5074556;28;20114;-76
2022/05/08 01:06:21;;;;;;;2.20;0.90;;;16.90;77.20;;;;;;5079433;28;20029;-74
2022/05/08 01:08:49;;;;;;;1.30;0.47;;;16.80;76.70;;;;;;5084187;28;20023;-74
2022/05/08 01:11:17;;;;;;;2.05;0.45;;;16.80;76.60;;;;;;5073863;28;20012;-74
2022/05/08 01:13:45;;;;;;;4.07;0.70;;;16.80;76.40;;;;;;5086813;28;20027;-74
2022/05/08 01:16:21;;;;;;;3.75;0.90;;;16.80;76.50;;;;;;5081208;28;20027;-74
2022/05/08 01:18:50;;;;;;;8.65;1.08;;;16.80;76.90;;;;;;5086366;28;20028;-74
2022/05/08 01:21:18;;;;;;;7.28;1.52;;;16.80;77.60;;;;;;5078414;28;20051;-74
2022/05/08 01:23:46;;;;;;;9.32;1.33;;;16.80;77.80;;;;;;5083806;28;20542;-74
2022/05/08 01:26:19;;;;;;;5.75;0.68;;;16.80;77.90;;;;;;5083881;28;20549;-74
2022/05/08 01:28:45;;;;;;;5.85;1.23;;;16.80;78.10;;;;;;5077195;28;20028;-75
2022/05/08 01:31:12;;;;;;;2.28;0.80;;;16.80;78.20;;;;;;5084224;28;20008;-75
2022/05/08 01:33:39;;;;;;;4.00;1.25;;;16.80;78.10;;;;;;5081227;28;20020;-74
2022/05/08 01:36:06;;;;;;;8.18;1.10;;;16.80;78.20;;;;;;5086500;28;20024;-74
2022/05/08 01:38:32;;;;;;;8.50;1.17;;;16.80;78.90;;;;;;5082132;28;20020;-73
2022/05/08 01:41:03;;;;;;;10.15;1.88;;;16.80;79.30;;;;;;5081598;28;20032;-74
2022/05/08 01:43:37;;;;;;;10.50;1.08;;;16.80;79.60;;;;;;5083479;28;20483;-74
2022/05/08 01:46:04;;;;;;;5.25;1.20;;;16.80;79.60;;;;;;5086297;28;20026;-74
2022/05/08 01:48:32;;;;;;;5.80;1.00;;;16.80;79.50;;;;;;5078591;28;20664;-74
2022/05/08 01:51:00;;;;;;;3.00;0.70;;;16.80;79.40;;;;;;5081871;28;20109;-74
2022/05/08 01:53:29;;;;;;;4.97;1.70;;;16.80;79.20;;;;;;5085804;28;20016;-75
2022/05/08 01:55:56;;;;;;;3.63;0.70;;;16.80;79.20;;;;;;5076673;28;20032;-73
2022/05/08 01:58:28;;;;;;;8.38;1.20;;;16.80;79.20;;;;;;5080064;28;20016;-76
2022/05/08 02:00:56;;;;;;;13.38;2.05;;;16.80;79.10;;;;;;5084878;28;20039;-73
2022/05/08 02:03:23;;;;;;;13.98;1.60;;;16.80;79.10;;;;;;5084596;28;20371;-74
2022/05/08 02:05:50;;;;;;;4.20;1.10;;;16.80;79.10;;;;;;5079832;28;20384;-76
2022/05/08 02:08:18;;;;;;;5.90;1.45;;;16.80;79.10;;;;;;5085910;28;20070;-74
2022/05/08 02:10:45;;;;;;;6.32;1.80;;;16.80;78.90;;;;;;5081139;28;20013;-73
2022/05/08 02:13:12;;;;;;;5.50;1.73;;;16.70;78.90;;;;;;5078971;28;20025;-73
2022/05/08 02:15:39;;;;;;;13.45;1.75;;;16.80;79.10;;;;;;5083052;28;20016;-73
2022/05/08 02:18:07;;;;;;;5.57;1.40;;;16.70;79.10;;;;;;5080723;28;20100;-73
2022/05/08 02:20:34;;;;;;;3.92;1.50;;;16.70;79.10;;;;;;5077835;28;20052;-73
2022/05/08 02:23:01;;;;;;;6.95;1.77;;;16.70;79.00;;;;;;5084140;28;20030;-74
2022/05/08 02:25:30;;;;;;;8.27;2.03;;;16.70;78.90;;;;;;5082145;28;20020;-74
2022/05/08 02:27:57;;;;;;;4.38;1.33;;;16.70;78.90;;;;;;5076314;28;20016;-74
2022/05/08 02:30:25;;;;;;;6.78;1.67;;;16.70;78.90;;;;;;5074900;28;20068;-74
2022/05/08 02:32:53;;;;;;;6.80;2.30;;;16.70;78.90;;;;;;5088391;28;20024;-73
2022/05/08 02:35:20;;;;;;;11.82;2.25;;;16.70;79.00;;;;;;5082505;28;20091;-74
2022/05/08 02:37:52;;;;;;;4.53;1.35;;;16.70;79.10;;;;;;5077930;28;20048;-74
2022/05/08 02:40:20;;;;;;;9.45;1.58;;;16.70;79.40;;;;;;5075233;28;20309;-74
2022/05/08 02:42:47;;;;;;;8.70;2.45;;;16.70;79.70;;;;;;5082290;28;20013;-74
2022/05/08 02:45:14;;;;;;;4.85;1.45;;;16.70;80.00;;;;;;5079996;28;20352;-74
2022/05/08 02:47:41;;;;;;;9.43;3.10;;;16.70;80.20;;;;;;5072323;28;20028;-74
2022/05/08 02:50:12;;;;;;;7.10;1.73;;;16.70;80.20;;;;;;5079878;28;20431;-73
2022/05/08 02:52:42;;;;;;;6.85;2.00;;;16.60;80.30;;;;;;5085520;28;20054;-74
2022/05/08 03:00:43;;;;;;;10.52;1.77;;;16.60;80.50;;;;;;5083919;28;20078;-73
2022/05/08 03:03:10;;;;;;;12.57;2.22;;;16.60;80.70;;;;;;5085200;28;20048;-76
2022/05/08 03:05:37;;;;;;;10.35;2.25;;;16.60;80.80;;;;;;5082761;28;20439;-74
2022/05/08 03:08:07;;;;;;;24.58;3.13;;;16.60;80.80;;;;;;5085919;28;20099;-74
2022/05/08 03:13:20;;;;;;;6.97;1.65;;;16.60;80.70;;;;;;5048122;28;20036;-76
2022/05/08 03:15:47;;;;;;;8.00;1.75;;;16.60;80.70;;;;;;5079250;28;20145;-76
2022/05/08 03:18:14;;;;;;;7.43;2.25;;;16.50;80.60;;;;;;5075093;28;20024;-76
2022/05/08 03:20:41;;;;;;;12.18;2.17;;;16.50;81.30;;;;;;5086561;28;20543;-77
2022/05/08 03:23:07;;;;;;;7.03;3.20;;;16.50;81.10;;;;;;5082182;28;20378;-76
2022/05/08 03:25:34;;;;;;;7.30;1.60;;;16.50;81.20;;;;;;5078759;28;20017;-76
2022/05/08 03:28:01;;;;;;;11.32;2.33;;;16.50;81.40;;;;;;5081110;28;20095;-76
2022/05/08 03:30:28;;;;;;;15.30;1.65;;;16.50;81.70;;;;;;5075597;28;20027;-78
2022/05/08 03:32:56;;;;;;;14.10;3.03;;;16.50;82.00;;;;;;5080098;28;20104;-75
2022/05/08 03:35:23;;;;;;;14.68;2.25;;;16.50;82.20;;;;;;5086797;28;20024;-76
2022/05/08 03:37:49;;;;;;;5.25;1.77;;;16.50;82.50;;;;;;5081307;28;20046;-76
2022/05/08 03:40:16;;;;;;;15.13;2.10;;;16.50;82.30;;;;;;5078002;28;20048;-76
2022/05/08 03:42:42;;;;;;;7.60;1.63;;;16.50;82.10;;;;;;5081365;28;20017;-76
2022/05/08 03:45:10;;;;;;;8.55;1.63;;;16.50;82.10;;;;;;5084324;28;20401;-76
2022/05/08 03:47:36;;;;;;;8.77;1.67;;;16.50;81.90;;;;;;5093579;28;20067;-76
2022/05/08 03:50:05;;;;;;;9.10;1.75;;;16.50;81.80;;;;;;5081330;28;20023;-77
2022/05/08 03:52:34;;;;;;;7.30;1.20;;;16.50;81.70;;;;;;5078836;28;20130;-76
2022/05/08 03:55:00;;;;;;;4.57;1.23;;;16.50;81.70;;;;;;5079927;28;20029;-76
2022/05/08 03:57:27;;;;;;;9.20;1.92;;;16.40;81.60;;;;;;5077667;28;20440;-76
2022/05/08 03:59:54;;;;;;;8.15;2.05;;;16.50;81.50;;;;;;5084179;28;20041;-76
2022/05/08 04:02:20;;;;;;;5.28;1.20;;;16.40;81.40;;;;;;5078929;28;20031;-75
2022/05/08 04:04:47;;;;;;;9.15;1.83;;;16.40;81.40;;;;;;5082138;28;20096;-76
2022/05/08 04:07:13;;;;;;;5.88;1.17;;;16.40;81.50;;;;;;5083060;28;20019;-75
2022/05/08 04:09:40;;;;;;;5.47;1.15;;;16.40;81.40;;;;;;5078911;28;20051;-75
2022/05/08 04:12:07;;;;;;;9.20;2.65;;;16.40;81.40;;;;;;5073781;28;20055;-77
2022/05/08 04:14:33;;;;;;;6.80;1.50;;;16.40;81.30;;;;;;5077613;28;20056;-77
2022/05/08 04:17:00;;;;;;;3.83;1.27;;;16.30;81.20;;;;;;5078679;28;20027;-77
2022/05/08 04:19:27;;;;;;;7.10;1.30;;;16.40;81.50;;;;;;5084246;28;20470;-77
2022/05/08 04:24:16;;;;;;;7.50;1.15;;;16.30;81.60;;;;;;5076340;28;20073;-75
2022/05/08 04:24:43;;;;;;;4.03;1.30;;;16.30;81.60;;;;;;5082072;28;20032;-76
2022/05/08 04:27:10;;;;;;;4.40;1.10;;;16.30;81.60;;;;;;5075737;28;20039;-76
2022/05/08 04:29:37;;;;;;;5.10;1.38;;;16.30;81.70;;;;;;5086489;28;20024;-76
2022/05/08 04:32:04;;;;;;;10.75;2.10;;;16.30;81.60;;;;;;5078402;28;20027;-76
2022/05/08 04:34:31;;;;;;;19.63;2.47;;;16.30;81.70;;;;;;5080763;28;20020;-75
2022/05/08 04:36:58;;;;;;;15.90;3.22;;;16.30;81.80;;;;;;5078178;28;20025;-76
2022/05/08 04:39:24;;;;;;;8.07;1.83;;;16.30;81.80;;;;;;5082891;28;20021;-75
2022/05/08 04:41:52;;;;;;;6.03;1.85;;;16.30;81.90;;;;;;5079747;28;20024;-75
2022/05/08 04:44:19;;;;;;;8.43;1.67;;;16.30;81.80;;;;;;5085686;28;20051;-76
2022/05/08 04:46:46;;;;;;;5.20;1.60;;;16.30;81.70;;;;;;5087805;28;20024;-76
2022/05/08 04:49:13;;;;;;;6.07;2.50;;;16.30;81.60;;;;;;5089441;28;20031;-74
2022/05/08 04:51:39;;;;;;;8.88;2.35;;;16.20;81.60;;;;;;5080099;28;20024;-75
2022/05/08 04:54:06;;;;;;;4.15;1.80;;;16.20;81.80;;;;;;5084233;28;20016;-75
2022/05/08 04:56:35;;;;;;;4.93;3.08;;;16.20;81.90;;;;;;5082312;28;20514;-76
2022/05/08 04:59:02;;;;;;;5.15;2.10;;;16.20;81.80;;;;;;5083266;28;20024;-77
2022/05/08 05:01:28;;;;;;;7.85;2.65;;;16.20;81.90;;;;;;5085582;28;20039;-76
2022/05/08 05:03:55;;;;;;;6.35;1.48;;;16.20;82.00;;;;;;5089115;28;20107;-77
2022/05/08 05:06:22;;;;;;;5.28;1.58;;;16.20;82.00;;;;;;5078175;28;20032;-77
2022/05/08 05:08:50;;;;;;;9.55;2.90;;;16.20;82.00;;;;;;5082959;28;20072;-74
2022/05/08 05:14:15;;;;;;;35.33;14.68;;;16.20;82.20;;;;;;5079106;28;20047;-77
2022/05/08 05:20:32;;;;;;;13.00;5.70;;;16.20;82.30;;;;;;4957239;28;20073;-78
2022/05/08 05:23:01;;;;;;;5.35;2.42;;;16.20;82.20;;;;;;5036013;28;20068;-76
2022/05/08 05:25:29;;;;;;;8.13;2.10;;;16.10;82.20;;;;;;5080418;28;20533;-74
2022/05/08 05:27:56;;;;;;;4.15;2.10;;;16.10;82.10;;;;;;5075846;28;20032;-75
2022/05/08 05:30:23;;;;;;;7.88;1.50;;;16.10;81.90;;;;;;5085464;28;20539;-75
2022/05/08 05:32:49;;;;;;;6.63;1.90;;;16.10;81.90;;;;;;5078514;28;20026;-76
2022/05/08 05:35:16;;;;;;;16.40;2.78;;;16.10;81.90;;;;;;5074232;28;20463;-74
2022/05/08 05:37:43;;;;;;;4.28;1.52;;;16.10;81.80;;;;;;5084859;28;20032;-76
2022/05/08 05:40:10;;;;;;;10.77;1.67;;;16.10;81.70;;;;;;5086586;28;20036;-76
2022/05/08 05:42:36;;;;;;;9.82;2.22;;;16.10;81.50;;;;;;5091353;28;20105;-76
2022/05/08 05:45:03;;;;;;;3.40;1.20;;;16.10;81.50;;;;;;5089252;28;20036;-78
2022/05/08 05:50:14;;;;;;;7.18;2.13;;;16.10;81.60;;;;;;5077383;28;20089;-76
2022/05/08 05:52:41;;;;;;;7.35;1.25;;;16.10;81.70;;;;;;5079775;28;20020;-74
2022/05/08 05:55:08;;;;;;;5.55;1.40;;;16.10;81.80;;;;;;5078546;28;20032;-81
2022/05/08 05:57:35;;;;;;;6.43;1.27;;;16.00;81.80;;;;;;5081343;28;20483;-74
2022/05/08 06:00:12;;;;;;;14.45;1.00;;;16.00;81.80;;;;;;5081255;28;20040;-74
2022/05/08 06:02:40;;;;;;;10.27;1.25;;;16.10;81.70;;;;;;5081669;28;20028;-75
2022/05/08 06:05:10;;;;;;;7.45;3.03;;;16.00;82.00;;;;;;5080328;28;20103;-76
2022/05/08 06:07:37;;;;;;;26.15;10.00;;;16.00;82.10;;;;;;5083087;28;20421;-75
2022/05/08 06:10:07;;;;;;;23.33;11.65;;;16.10;82.30;;;;;;5078365;28;20028;-74
2022/05/08 06:12:33;;;;;;;11.98;7.13;;;16.10;82.50;;;;;;5087066;28;20035;-75
2022/05/08 06:15:01;;;;;;;13.85;4.53;;;16.10;82.50;;;;;;5082374;28;20422;-75
2022/05/08 06:17:28;;;;;;;7.25;3.53;;;16.10;82.50;;;;;;5079180;28;20101;-73
2022/05/08 06:19:54;;;;;;;10.55;2.42;;;16.10;82.40;;;;;;5084375;28;20041;-74
2022/05/08 06:22:21;;;;;;;4.38;1.92;;;16.10;82.50;;;;;;5082567;28;20048;-75
2022/05/08 06:24:48;;;;;;;6.80;1.17;;;16.10;82.50;;;;;;5078893;28;20502;-75
2022/05/08 06:27:17;;;;;;;6.25;2.05;;;16.10;82.60;;;;;;5076854;28;20446;-75
2022/05/08 06:29:44;;;;;;;100.65;47.78;;;16.10;82.60;;;;;;5077773;28;20029;-74
2022/05/08 06:32:10;;;;;;;31.70;25.20;;;16.20;82.70;;;;;;5077402;28;20065;-75
2022/05/08 06:34:37;;;;;;;22.55;19.42;;;16.20;82.30;;;;;;5082404;28;20066;-75
2022/05/08 06:37:04;;;;;;;31.08;14.15;;;16.20;82.40;;;;;;5079852;28;20016;-74
2022/05/08 06:39:32;;;;;;;21.48;8.98;;;16.20;82.60;;;;;;5076750;28;20774;-74
2022/05/08 06:41:59;;;;;;;13.48;4.90;;;16.20;82.80;;;;;;5082843;28;20111;-75
2022/05/08 06:44:25;;;;;;;7.55;3.65;;;16.20;83.10;;;;;;5081960;28;20056;-75
2022/05/08 06:46:52;;;;;;;8.25;2.97;;;16.30;83.40;;;;;;5083785;28;20032;-75
2022/05/08 06:49:18;;;;;;;6.93;2.67;;;16.30;83.50;;;;;;5082082;28;20020;-75
2022/05/08 06:51:46;;;;;;;6.40;2.08;;;16.30;83.70;;;;;;5085969;28;20024;-75
2022/05/08 06:54:12;;;;;;;2.72;1.05;;;16.40;83.90;;;;;;5082476;28;20061;-75
2022/05/08 06:56:41;;;;;;;4.68;0.93;;;16.40;84.00;;;;;;5081965;28;20036;-75
2022/05/08 07:01:54;;;;;;;12.25;1.42;;;16.50;84.20;;;;;;5077796;28;20137;-78
2022/05/08 07:04:20;;;;;;;2.70;1.10;;;16.50;84.30;;;;;;5080320;28;20467;-76
2022/05/08 07:06:47;;;;;;;4.40;1.55;;;16.50;84.40;;;;;;5079823;28;20051;-77
2022/05/08 07:09:14;;;;;;;11.00;2.35;;;16.60;84.50;;;;;;5079120;28;20115;-77
2022/05/08 07:11:44;;;;;;;3.88;1.20;;;16.60;84.50;;;;;;5080616;28;20097;-78
2022/05/08 07:14:11;;;;;;;11.90;4.20;;;16.60;84.60;;;;;;5081073;28;20478;-76
2022/05/08 07:16:38;;;;;;;25.95;8.45;;;16.60;84.50;;;;;;5081777;28;20499;-76
2022/05/08 07:19:04;;;;;;;18.42;7.80;;;16.70;84.50;;;;;;5078120;28;20037;-76
2022/05/08 07:21:31;;;;;;;19.90;6.00;;;16.70;84.50;;;;;;5080732;28;20423;-76
2022/05/08 07:23:57;;;;;;;11.50;3.95;;;16.70;84.40;;;;;;5078375;28;20027;-79
2022/05/08 07:26:23;;;;;;;6.57;2.75;;;16.70;84.40;;;;;;5079595;28;20048;-75
2022/05/08 07:28:50;;;;;;;8.82;1.98;;;16.70;84.30;;;;;;5081536;28;20067;-76
2022/05/08 07:31:17;;;;;;;11.25;2.00;;;16.70;84.20;;;;;;5080814;28;20134;-77
2022/05/08 07:33:44;;;;;;;4.72;1.48;;;16.70;84.00;;;;;;5078284;28;20024;-77
2022/05/08 07:36:13;;;;;;;6.32;2.15;;;16.70;83.90;;;;;;5079523;28;20072;-76
2022/05/08 07:38:47;;;;;;;2.85;1.33;;;16.70;83.70;;;;;;5074087;28;20416;-74
2022/05/08 07:41:17;;;;;;;2.25;1.20;;;16.80;83.80;;;;;;5080169;28;20048;-78
2022/05/08 07:43:47;;;;;;;2.78;0.88;;;16.80;83.50;;;;;;5080137;28;20024;-74
2022/05/08 07:46:17;;;;;;;3.70;1.02;;;16.80;83.50;;;;;;5086278;28;20042;-75
2022/05/08 07:48:45;;;;;;;3.38;1.50;;;16.80;83.40;;;;;;5080637;28;20059;-77
2022/05/08 07:51:12;;;;;;;2.20;1.10;;;16.80;83.20;;;;;;5075706;28;20024;-76
2022/05/08 07:53:38;;;;;;;7.20;1.17;;;16.90;83.20;;;;;;5083701;28;20012;-75
2022/05/08 07:56:05;;;;;;;5.03;2.25;;;16.90;83.10;;;;;;5076247;28;20550;-76
2022/05/08 07:58:32;;;;;;;17.63;13.13;;;16.90;83.00;;;;;;5073882;28;20416;-76
2022/05/08 08:01:08;;;;;;;24.45;10.52;;;16.90;82.80;;;;;;5078945;28;20064;-76
2022/05/08 08:03:34;;;;;;;17.23;8.35;;;17.00;82.80;;;;;;5074456;28;20031;-72
2022/05/08 08:06:04;;;;;;;12.05;5.63;;;17.00;82.70;;;;;;5083919;28;20020;-77
2022/05/08 08:08:31;;;;;;;19.42;4.75;;;17.00;82.60;;;;;;5081693;28;20024;-76
2022/05/08 08:11:01;;;;;;;116.18;12.60;;;17.10;82.50;;;;;;5082160;28;20395;-74
2022/05/08 08:13:29;;;;;;;80.97;10.80;;;17.10;82.40;;;;;;5086378;28;20020;-72
2022/05/08 08:15:57;;;;;;;53.88;9.18;;;17.10;82.30;;;;;;5077448;28;20018;-72
2022/05/08 08:18:23;;;;;;;16.95;2.85;;;17.20;82.20;;;;;;5092665;28;20025;-74
2022/05/08 08:20:50;;;;;;;13.60;2.85;;;17.30;81.50;;;;;;5081080;28;20051;-77
2022/05/08 08:23:17;;;;;;;7.00;2.20;;;17.30;80.70;;;;;;5087726;28;20477;-73
2022/05/08 08:25:44;;;;;;;3.10;1.35;;;17.30;80.20;;;;;;5073269;28;20024;-73
2022/05/08 08:28:11;;;;;;;10.32;1.80;;;17.30;79.80;;;;;;5081545;28;20016;-76
2022/05/08 08:30:38;;;;;;;9.93;1.27;;;17.30;79.70;;;;;;5079116;28;20474;-74
2022/05/08 08:33:04;;;;;;;4.55;1.48;;;17.40;79.60;;;;;;5071806;28;20005;-73
2022/05/08 08:35:31;;;;;;;2.45;0.77;;;17.40;79.50;;;;;;5073939;28;20012;-76
2022/05/08 08:37:57;;;;;;;3.72;1.02;;;17.40;79.20;;;;;;5075838;28;20020;-74
2022/05/08 08:40:24;;;;;;;5.85;1.05;;;17.40;79.10;;;;;;5084277;28;20114;-73
2022/05/08 08:42:51;;;;;;;4.55;0.95;;;17.50;79.10;;;;;;5078402;28;20012;-74
2022/05/08 08:48:09;;;;;;;3.08;1.08;;;17.50;78.30;;;;;;5083447;28;20098;-73
2022/05/08 08:50:35;;;;;;;3.08;1.05;;;17.50;77.90;;;;;;5081071;28;20028;-73
2022/05/08 08:53:04;;;;;;;1.65;0.82;;;17.50;77.20;;;;;;5084749;28;20480;-73
2022/05/08 08:55:32;;;;;;;5.50;1.15;;;17.60;76.80;;;;;;5075174;28;20020;-73
2022/05/08 08:58:00;;;;;;;0.95;0.88;;;17.60;76.70;;;;;;5079234;28;20024;-73
2022/05/08 09:00:58;;;;;;;1.92;0.80;;;17.70;76.70;;;;;;5073028;28;20483;-76
2022/05/08 09:07:20;;;;;;;6.90;0.80;;;17.70;76.10;;;;;;5007194;28;20022;-74
2022/05/08 09:09:47;;;;;;;6.00;0.80;;;17.80;76.00;;;;;;5058618;28;20062;-74
2022/05/08 09:12:17;;;;;;;4.88;1.23;;;17.80;75.70;;;;;;5074749;28;20032;-74
2022/05/08 09:14:43;;;;;;;1.65;0.70;;;17.90;75.40;;;;;;5070223;28;20027;-74
2022/05/08 09:17:10;;;;;;;1.95;0.90;;;17.90;75.30;;;;;;5077504;28;20050;-74
2022/05/08 09:19:38;;;;;;;2.83;0.98;;;18.00;75.10;;;;;;5073836;28;20060;-74
2022/05/08 09:22:11;;;;;;;5.88;1.10;;;18.00;74.80;;;;;;5081425;28;20067;-74
2022/05/08 09:24:51;;;;;;;1.88;0.90;;;18.10;74.20;;;;;;5081144;28;20533;-74
2022/05/08 09:27:18;;;;;;;1.95;0.68;;;18.10;74.10;;;;;;5078100;28;20021;-74
2022/05/08 09:29:45;;;;;;;3.53;0.93;;;18.10;73.50;;;;;;5080336;28;20024;-74
2022/05/08 09:32:49;;;;;;;3.08;1.20;;;18.20;73.20;;;;;;5076746;28;20021;-74
2022/05/08 09:35:16;;;;;;;7.78;0.70;;;18.20;72.70;;;;;;5023854;28;20025;-74
2022/05/08 09:37:52;;;;;;;11.00;1.58;;;18.30;72.40;;;;;;5069399;28;20040;-75
2022/05/08 09:40:21;;;;;;;2.70;0.70;;;18.30;71.90;;;;;;5084889;28;20078;-74
2022/05/08 09:42:48;;;;;;;4.97;1.00;;;18.40;71.70;;;;;;5091178;28;20571;-74
2022/05/08 09:45:14;;;;;;;2.42;0.90;;;18.50;70.80;;;;;;5081416;28;20382;-74
2022/05/08 09:47:49;;;;;;;4.45;0.77;;;18.50;70.20;;;;;;5077227;28;20118;-75
2022/05/08 09:50:16;;;;;;;2.40;0.60;;;18.60;70.00;;;;;;5081966;28;20386;-74
2022/05/08 09:52:45;;;;;;;2.65;0.68;;;18.70;69.40;;;;;;5084526;28;20807;-74
2022/05/08 09:55:13;;;;;;;2.50;0.52;;;18.70;68.90;;;;;;5080785;28;20023;-74
2022/05/08 09:57:40;;;;;;;2.75;0.77;;;18.70;68.30;;;;;;5081883;28;20502;-74
2022/05/08 10:00:08;;;;;;;2.85;0.73;;;18.80;68.20;;;;;;5075407;28;20416;-74
2022/05/08 10:02:37;;;;;;;1.73;0.70;;;18.90;67.90;;;;;;5087546;28;20035;-74
2022/05/08 10:05:03;;;;;;;2.38;1.60;;;18.90;67.10;;;;;;5083957;28;20028;-74
2022/05/08 10:07:32;;;;;;;2.45;0.68;;;19.00;67.00;;;;;;5082581;28;20031;-74
2022/05/08 10:15:36;;;;;;;4.53;0.80;;;19.20;66.20;;;;;;5082129;28;20525;-74
2022/05/08 10:18:21;;;;;;;5.75;0.80;;;19.30;65.90;;;;;;5078318;28;20125;-74
2022/05/08 10:21:06;;;;;;;1.20;0.75;;;19.30;65.80;;;;;;5074949;28;20052;-74
2022/05/08 10:23:39;;;;;;;6.35;0.85;;;19.40;65.30;;;;;;5087852;28;20040;-75
2022/05/08 10:26:18;;;;;;;3.90;1.23;;;19.40;64.10;;;;;;5087793;28;20051;-75
2022/05/08 10:29:18;;;;;;;5.82;1.95;;;19.50;65.00;;;;;;5088160;28;20048;-69
2022/05/08 10:31:48;;;;;;;11.27;1.80;;;19.50;65.50;;;;;;5088479;28;20035;-72
2022/05/08 10:34:15;;;;;;;15.10;2.38;;;19.60;66.70;;;;;;5081167;28;20042;-72
2022/05/08 10:37:12;;;;;;;12.18;1.73;;;19.60;67.10;;;;;;5081998;28;20068;-70
2022/05/08 10:39:43;;;;;;;4.45;2.45;;;19.60;66.80;;;;;;5086843;28;20035;-70
2022/05/08 10:42:28;;;;;;;8.85;2.03;;;19.70;66.60;;;;;;5078120;28;20016;-71
2022/05/08 10:44:55;;;;;;;9.00;2.40;;;19.70;66.50;;;;;;5080285;28;20024;-73
2022/05/08 10:47:37;;;;;;;10.07;1.80;;;19.70;66.70;;;;;;5077344;28;20021;-76
2022/05/08 10:50:08;;;;;;;10.02;2.08;;;19.80;66.60;;;;;;5072160;28;20024;-71
2022/05/08 10:52:40;;;;;;;4.53;1.60;;;19.80;66.30;;;;;;5092120;28;20024;-73
2022/05/08 10:55:09;;;;;;;11.77;1.95;;;19.80;65.80;;;;;;5081069;28;20015;-71
2022/05/08 10:57:36;;;;;;;13.75;2.30;;;19.80;65.50;;;;;;5082799;28;20055;-73
2022/05/08 11:00:14;;;;;;;8.00;1.70;;;19.80;65.40;;;;;;5081236;28;20066;-76
2022/05/08 11:02:47;;;;;;;16.95;3.15;;;19.80;65.40;;;;;;5076664;28;20016;-74
2022/05/08 11:05:43;;;;;;;13.27;2.55;;;19.90;65.20;;;;;;5080296;28;20249;-74
2022/05/08 11:08:11;;;;;;;4.50;1.58;;;19.90;64.50;;;;;;5062507;28;20495;-74
2022/05/08 11:10:42;;;;;;;4.47;2.10;;;19.90;63.40;;;;;;5074771;28;20490;-73
2022/05/08 11:13:15;;;;;;;6.43;1.95;;;20.00;63.40;;;;;;5076721;28;20028;-73
2022/05/08 11:15:48;;;;;;;2.75;1.23;;;20.00;63.60;;;;;;5086692;28;20028;-73
2022/05/08 11:18:15;;;;;;;7.25;1.75;;;20.10;63.00;;;;;;5074978;28;20475;-76
2022/05/08 11:20:50;;;;;;;10.70;5.10;;;20.10;62.40;;;;;;5074782;28;20087;-74
2022/05/08 11:23:21;;;;;;;;;;;20.10;62.10;;;;;;5079876;28;20020;-75
2022/05/08 11:25:55;;;;;;;5.47;3.58;;;20.20;61.60;;;;;;5091218;28;19955;-71
2022/05/08 11:28:23;;;;;;;11.25;3.35;;;20.20;61.50;;;;;;5079230;28;20057;-73
2022/05/08 11:30:52;;;;;;;4.28;2.30;;;20.30;61.00;;;;;;5079025;28;20544;-75
2022/05/08 11:36:26;;;;;;;4.55;1.38;;;20.30;60.80;;;;;;5079448;28;20386;-76
2022/05/08 11:39:00;;;;;;;1.63;0.98;;;20.30;59.80;;;;;;5078964;28;20048;-74
2022/05/08 11:41:29;;;;;;;7.65;1.55;;;20.40;59.70;;;;;;5087115;28;20504;-73
2022/05/08 11:43:57;;;;;;;12.45;2.65;;;20.40;59.70;;;;;;5078632;28;20107;-74
2022/05/08 11:46:36;;;;;;;17.70;2.72;;;20.40;59.90;;;;;;5079939;28;20017;-74
2022/05/08 11:49:17;;;;;;;14.60;1.98;;;20.40;59.60;;;;;;5072122;28;20047;-73
2022/05/08 11:51:45;;;;;;;6.65;1.10;;;20.50;59.60;;;;;;5079295;28;20016;-73
2022/05/08 11:54:24;;;;;;;2.22;1.67;;;20.50;59.10;;;;;;5075956;28;20025;-75
2022/05/08 11:57:08;;;;;;;3.78;0.88;;;20.60;58.40;;;;;;5078314;28;20039;-69
2022/05/08 11:59:36;;;;;;;3.22;1.10;;;20.60;57.80;;;;;;5091709;28;20821;-69
2022/05/08 12:02:03;;;;;;;4.65;1.05;;;20.60;57.50;;;;;;5074437;28;20072;-70
2022/05/08 12:04:36;;;;;;;6.35;1.13;;;20.70;57.30;;;;;;5085945;28;20372;-69
2022/05/08 12:07:47;;;;;;;2.75;1.10;;;20.70;56.60;;;;;;5081868;28;20093;-71
2022/05/08 12:10:15;;;;;;;0.60;0.43;;;20.70;56.50;;;;;;5076674;28;20024;-70
2022/05/08 12:12:42;;;;;;;2.63;0.68;;;20.80;56.20;;;;;;5076090;28;20012;-79
2022/05/08 12:15:12;;;;;;;3.50;0.75;;;20.90;55.80;;;;;;5078702;28;20031;-74
2022/05/08 12:17:49;;;;;;;3.88;1.33;;;20.90;55.70;;;;;;5074414;28;20390;-71
2022/05/08 12:20:26;;;;;;;3.38;1.00;;;20.90;55.60;;;;;;5073036;28;20528;-72
2022/05/08 12:23:07;;;;;;;4.53;2.05;;;21.00;55.30;;;;;;5076915;28;20016;-73
2022/05/08 12:25:37;;;;;;;3.63;0.95;;;21.00;55.00;;;;;;5077634;28;20028;-74
2022/05/08 12:28:07;;;;;;;3.88;1.08;;;21.10;54.60;;;;;;5078380;28;20020;-73
2022/05/08 12:30:34;;;;;;;4.15;0.68;;;21.10;54.50;;;;;;5075773;28;20016;-76
2022/05/08 12:33:00;;;;;;;1.40;1.00;;;21.10;54.80;;;;;;5074920;28;20077;-72
2022/05/08 12:35:27;;;;;;;2.88;1.02;;;21.10;54.60;;;;;;5074774;28;20024;-72
2022/05/08 12:37:54;;;;;;;0.95;0.50;;;21.20;54.80;;;;;;5070461;28;20025;-73
2022/05/08 12:40:21;;;;;;;1.30;0.50;;;21.20;54.20;;;;;;5069387;28;20064;-74
2022/05/08 12:42:47;;;;;;;3.00;0.88;;;21.20;54.00;;;;;;5071543;28;20029;-73
2022/05/08 12:45:14;;;;;;;17.38;15.05;;;21.20;54.10;;;;;;5073129;28;20087;-76
2022/05/08 12:47:50;;;;;;;10.70;7.63;;;21.30;53.90;;;;;;5068716;28;20020;-73
2022/05/08 12:50:16;;;;;;;6.22;5.05;;;21.30;53.70;;;;;;5067386;28;20024;-72
2022/05/08 12:52:45;;;;;;;5.30;3.20;;;21.30;53.40;;;;;;5073586;28;20024;-73
2022/05/08 12:55:12;;;;;;;6.07;1.80;;;21.30;53.30;;;;;;5069853;28;20040;-74
2022/05/08 13:00:24;;;;;;;6.97;1.55;;;21.40;53.80;;;;;;5079705;28;20086;-73
2022/05/08 13:02:52;;;;;;;2.65;1.25;;;21.40;53.50;;;;;;5085467;28;20029;-73
2022/05/08 13:05:18;;;;;;;23.38;9.05;;;21.40;53.30;;;;;;5084308;28;20031;-72
2022/05/08 13:07:45;;;;;;;13.65;4.07;;;21.40;53.80;;;;;;5087101;28;20028;-73
2022/05/08 13:10:11;;;;;;;4.40;2.35;;;21.40;53.80;;;;;;5076383;28;20518;-73
2022/05/08 13:12:39;;;;;;;3.83;1.58;;;21.40;53.40;;;;;;5081177;28;20389;-70
2022/05/08 13:15:06;;;;;;;4.63;1.05;;;21.50;53.20;;;;;;5080345;28;20031;-75
2022/05/08 13:17:32;;;;;;;4.05;1.15;;;21.50;53.20;;;;;;5084741;28;20020;-75
2022/05/08 13:20:02;;;;;;;5.45;1.05;;;21.50;53.40;;;;;;5080942;28;20048;-70
2022/05/08 13:22:29;;;;;;;3.03;0.80;;;21.60;53.20;;;;;;5082387;28;20029;-73
2022/05/08 13:24:55;;;;;;;24.48;2.95;;;21.60;53.00;;;;;;5085305;28;20070;-75
2022/05/08 13:27:22;;;;;;;11.23;2.08;;;21.60;53.30;;;;;;5080548;28;20096;-71
2022/05/08 13:29:48;;;;;;;11.02;1.35;;;21.60;53.30;;;;;;5089861;28;20021;-71
2022/05/08 13:32:14;;;;;;;5.38;1.75;;;21.60;53.10;;;;;;5083501;28;20521;-74
2022/05/08 13:34:41;;;;;;;5.03;0.80;;;21.60;53.20;;;;;;5085251;28;20487;-71